sensor_id;sensor_type;location;lat;lon;timestamp;temperature;humidity
23237;DHT22;11787;52.018;8.570;2022-12-18T00:01:02;-6.90;99.90
23237;DHT22;11787;52.018;8.570;2022-12-18T00:03:35;-6.90;99.90
23237;DHT22;11787;52.018;8.570;2022-12-18T00:06:01;-6.90;99.90
23237;DHT22;11787;52.018;8.570;2022-12-18T00:08:27;-6.90;99.90
23237;DHT22;11787;52.018;8.570;2022-12-18T00:10:53;-6.80;99.90
23237;DHT22;11787;52.018;8.570;2022-12-18T00:13:19;-6.80;99.90
23237;DHT22;11787;52.018;8.570;2022-12-18T00:15:44;-6.80;99.90
23237;DHT22;11787;52.018;8.570;2022-12-18T00:18:10;-6.80;99.90
23237;DHT22;11787;52.018;8.570;2022-12-18T00:20:39;-6.80;99.90
23237;DHT22;11787;52.018;8.570;2022-12-18T00:23:06;-6.80;99.90
23237;DHT22;11787;52.018;8.570;2022-12-18T00:25:33;-6.80;99.90
23237;DHT22;11787;52.018;8.570;2022-12-18T00:28:00;-6.80;99.90
23237;DHT22;11787;52.018;8.570;2022-12-18T00:30:26;-6.80;99.90
23237;DHT22;11787;52.018;8.570;2022-12-18T00:36:20;-6.80;99.90
23237;DHT22;11787;52.018;8.570;2022-12-18T00:38:46;-6.80;99.90
23237;DHT22;11787;52.018;8.570;2022-12-18T00:41:14;-6.80;99.90
23237;DHT22;11787;52.018;8.570;2022-12-18T00:44:00;-6.80;99.90
23237;DHT22;11787;52.018;8.570;2022-12-18T00:46:25;-6.90;99.90
23237;DHT22;11787;52.018;8.570;2022-12-18T00:48:51;-6.90;99.90
23237;DHT22;11787;52.018;8.570;2022-12-18T00:51:16;-6.90;99.90
23237;DHT22;11787;52.018;8.570;2022-12-18T00:53:42;-6.90;99.90
23237;DHT22;11787;52.018;8.570;2022-12-18T00:56:07;-6.90;99.90
23237;DHT22;11787;52.018;8.570;2022-12-18T01:01:55;-7.00;99.90
23237;DHT22;11787;52.018;8.570;2022-12-18T01:04:21;-7.10;99.90
23237;DHT22;11787;52.018;8.570;2022-12-18T01:10:12;-7.20;99.90
23237;DHT22;11787;52.018;8.570;2022-12-18T01:12:37;-7.20;99.90
23237;DHT22;11787;52.018;8.570;2022-12-18T01:15:04;-7.20;99.90
23237;DHT22;11787;52.018;8.570;2022-12-18T01:17:30;-7.20;99.90
23237;DHT22;11787;52.018;8.570;2022-12-18T01:19:56;-7.30;99.90
23237;DHT22;11787;52.018;8.570;2022-12-18T01:22:21;-7.30;99.90
23237;DHT22;11787;52.018;8.570;2022-12-18T01:28:09;-7.30;99.90
23237;DHT22;11787;52.018;8.570;2022-12-18T01:30:35;-7.40;99.90
23237;DHT22;11787;52.018;8.570;2022-12-18T01:33:00;-7.40;99.90
23237;DHT22;11787;52.018;8.570;2022-12-18T01:35:26;-7.40;99.90
23237;DHT22;11787;52.018;8.570;2022-12-18T01:41:15;-7.40;99.90
23237;DHT22;11787;52.018;8.570;2022-12-18T01:46:15;-7.50;99.90
23237;DHT22;11787;52.018;8.570;2022-12-18T01:48:41;-7.50;99.90
23237;DHT22;11787;52.018;8.570;2022-12-18T01:51:09;-7.50;99.90
23237;DHT22;11787;52.018;8.570;2022-12-18T01:53:37;-7.40;99.90
23237;DHT22;11787;52.018;8.570;2022-12-18T01:56:04;-7.50;99.90
23237;DHT22;11787;52.018;8.570;2022-12-18T01:58:42;-7.60;99.90
23237;DHT22;11787;52.018;8.570;2022-12-18T02:01:09;-7.50;99.90
23237;DHT22;11787;52.018;8.570;2022-12-18T02:03:34;-7.40;99.90
23237;DHT22;11787;52.018;8.570;2022-12-18T02:09:13;-7.40;99.90
23237;DHT22;11787;52.018;8.570;2022-12-18T02:11:53;-7.50;99.90
23237;DHT22;11787;52.018;8.570;2022-12-18T02:17:24;-7.50;99.90
23237;DHT22;11787;52.018;8.570;2022-12-18T02:28:30;-7.60;99.90
23237;DHT22;11787;52.018;8.570;2022-12-18T02:31:00;-7.60;99.90
23237;DHT22;11787;52.018;8.570;2022-12-18T02:33:27;-7.70;99.90
23237;DHT22;11787;52.018;8.570;2022-12-18T02:35:55;-7.70;99.90
23237;DHT22;11787;52.018;8.570;2022-12-18T02:41:44;-7.60;99.90
23237;DHT22;11787;52.018;8.570;2022-12-18T02:44:12;-7.60;99.90
23237;DHT22;11787;52.018;8.570;2022-12-18T02:46:48;-7.60;99.90
23237;DHT22;11787;52.018;8.570;2022-12-18T02:55:07;-7.70;99.90
23237;DHT22;11787;52.018;8.570;2022-12-18T03:08:52;-7.70;99.90
23237;DHT22;11787;52.018;8.570;2022-12-18T03:11:19;-7.70;99.90
23237;DHT22;11787;52.018;8.570;2022-12-18T03:14:07;-7.70;99.90
23237;DHT22;11787;52.018;8.570;2022-12-18T03:16:34;-7.70;99.90
23237;DHT22;11787;52.018;8.570;2022-12-18T03:19:13;-7.80;99.90
23237;DHT22;11787;52.018;8.570;2022-12-18T03:21:49;-7.80;99.90
23237;DHT22;11787;52.018;8.570;2022-12-18T03:24:17;-7.80;99.90
23237;DHT22;11787;52.018;8.570;2022-12-18T03:26:47;-7.80;99.90
23237;DHT22;11787;52.018;8.570;2022-12-18T03:29:22;-7.80;99.90
23237;DHT22;11787;52.018;8.570;2022-12-18T03:31:54;-7.80;99.90
23237;DHT22;11787;52.018;8.570;2022-12-18T03:34:31;-7.80;99.90
23237;DHT22;11787;52.018;8.570;2022-12-18T03:36:57;-7.90;99.90
23237;DHT22;11787;52.018;8.570;2022-12-18T03:39:24;-7.90;99.90
23237;DHT22;11787;52.018;8.570;2022-12-18T03:44:29;-8.00;99.90
23237;DHT22;11787;52.018;8.570;2022-12-18T03:47:13;-8.00;99.90
23237;DHT22;11787;52.018;8.570;2022-12-18T03:55:07;-7.90;99.90
23237;DHT22;11787;52.018;8.570;2022-12-18T03:57:33;-7.90;99.90
23237;DHT22;11787;52.018;8.570;2022-12-18T04:00:07;-7.90;99.90
23237;DHT22;11787;52.018;8.570;2022-12-18T04:02:34;-7.90;99.90
23237;DHT22;11787;52.018;8.570;2022-12-18T04:05:04;-7.90;99.90
23237;DHT22;11787;52.018;8.570;2022-12-18T04:07:31;-7.90;99.90
23237;DHT22;11787;52.018;8.570;2022-12-18T04:09:59;-7.80;99.90
23237;DHT22;11787;52.018;8.570;2022-12-18T04:12:28;-7.90;99.90
23237;DHT22;11787;52.018;8.570;2022-12-18T04:14:54;-8.00;99.90
23237;DHT22;11787;52.018;8.570;2022-12-18T04:17:20;-8.00;99.90
23237;DHT22;11787;52.018;8.570;2022-12-18T04:19:46;-8.10;99.90
23237;DHT22;11787;52.018;8.570;2022-12-18T04:22:12;-8.20;99.90
23237;DHT22;11787;52.018;8.570;2022-12-18T04:24:37;-8.10;99.90
23237;DHT22;11787;52.018;8.570;2022-12-18T04:27:03;-8.20;99.90
23237;DHT22;11787;52.018;8.570;2022-12-18T04:29:29;-8.10;99.90
23237;DHT22;11787;52.018;8.570;2022-12-18T04:31:55;-8.10;99.90
23237;DHT22;11787;52.018;8.570;2022-12-18T04:34:21;-8.10;99.90
23237;DHT22;11787;52.018;8.570;2022-12-18T04:36:46;-8.10;99.90
23237;DHT22;11787;52.018;8.570;2022-12-18T04:39:12;-8.20;99.90
23237;DHT22;11787;52.018;8.570;2022-12-18T04:41:38;-8.20;99.90
23237;DHT22;11787;52.018;8.570;2022-12-18T04:44:03;-8.20;99.90
23237;DHT22;11787;52.018;8.570;2022-12-18T04:46:29;-8.20;99.90
23237;DHT22;11787;52.018;8.570;2022-12-18T04:48:55;-8.20;99.90
23237;DHT22;11787;52.018;8.570;2022-12-18T04:51:21;-8.20;99.90
23237;DHT22;11787;52.018;8.570;2022-12-18T04:53:46;-8.20;99.90
23237;DHT22;11787;52.018;8.570;2022-12-18T04:56:14;-8.10;99.90
23237;DHT22;11787;52.018;8.570;2022-12-18T04:58:41;-8.20;99.90
23237;DHT22;11787;52.018;8.570;2022-12-18T05:01:07;-8.20;99.90
23237;DHT22;11787;52.018;8.570;2022-12-18T05:03:34;-8.20;99.90
23237;DHT22;11787;52.018;8.570;2022-12-18T05:06:00;-8.20;99.90
23237;DHT22;11787;52.018;8.570;2022-12-18T05:08:26;-8.20;99.90
23237;DHT22;11787;52.018;8.570;2022-12-18T05:11:06;-8.20;99.90
23237;DHT22;11787;52.018;8.570;2022-12-18T05:13:32;-8.20;99.90
23237;DHT22;11787;52.018;8.570;2022-12-18T05:15:58;-8.20;99.90
23237;DHT22;11787;52.018;8.570;2022-12-18T05:18:25;-8.20;99.90
23237;DHT22;11787;52.018;8.570;2022-12-18T05:20:51;-8.40;99.90
23237;DHT22;11787;52.018;8.570;2022-12-18T05:23:17;-8.40;99.90
23237;DHT22;11787;52.018;8.570;2022-12-18T05:25:56;-8.40;99.90
23237;DHT22;11787;52.018;8.570;2022-12-18T05:28:23;-8.40;99.90
23237;DHT22;11787;52.018;8.570;2022-12-18T05:30:55;-8.50;99.90
23237;DHT22;11787;52.018;8.570;2022-12-18T05:33:23;-8.60;99.90
23237;DHT22;11787;52.018;8.570;2022-12-18T05:35:52;-8.50;99.90
23237;DHT22;11787;52.018;8.570;2022-12-18T05:38:20;-8.50;99.90
23237;DHT22;11787;52.018;8.570;2022-12-18T05:40:46;-8.50;99.90
23237;DHT22;11787;52.018;8.570;2022-12-18T05:43:12;-8.50;99.90
23237;DHT22;11787;52.018;8.570;2022-12-18T05:45:38;-8.40;99.90
23237;DHT22;11787;52.018;8.570;2022-12-18T05:48:04;-8.40;99.90
23237;DHT22;11787;52.018;8.570;2022-12-18T05:50:30;-8.30;99.90
23237;DHT22;11787;52.018;8.570;2022-12-18T05:52:56;-8.30;99.90
23237;DHT22;11787;52.018;8.570;2022-12-18T05:55:21;-8.30;99.90
23237;DHT22;11787;52.018;8.570;2022-12-18T05:57:47;-8.20;99.90
23237;DHT22;11787;52.018;8.570;2022-12-18T06:00:13;-8.20;99.90
23237;DHT22;11787;52.018;8.570;2022-12-18T06:02:38;-8.20;99.90
23237;DHT22;11787;52.018;8.570;2022-12-18T06:05:04;-8.20;99.90
23237;DHT22;11787;52.018;8.570;2022-12-18T06:07:30;-8.20;99.90
23237;DHT22;11787;52.018;8.570;2022-12-18T06:09:55;-8.20;99.90
23237;DHT22;11787;52.018;8.570;2022-12-18T06:12:21;-8.20;99.90
23237;DHT22;11787;52.018;8.570;2022-12-18T06:14:47;-8.20;99.90
23237;DHT22;11787;52.018;8.570;2022-12-18T06:17:12;-8.20;99.90
23237;DHT22;11787;52.018;8.570;2022-12-18T06:19:38;-8.10;99.90
23237;DHT22;11787;52.018;8.570;2022-12-18T06:22:03;-8.10;99.90
23237;DHT22;11787;52.018;8.570;2022-12-18T06:24:29;-8.10;99.90
23237;DHT22;11787;52.018;8.570;2022-12-18T06:26:55;-8.30;99.90
23237;DHT22;11787;52.018;8.570;2022-12-18T06:29:21;-8.30;99.90
23237;DHT22;11787;52.018;8.570;2022-12-18T06:31:46;-8.40;99.90
23237;DHT22;11787;52.018;8.570;2022-12-18T06:34:12;-8.30;99.90
23237;DHT22;11787;52.018;8.570;2022-12-18T06:36:37;-8.40;99.90
23237;DHT22;11787;52.018;8.570;2022-12-18T06:39:03;-8.50;99.90
23237;DHT22;11787;52.018;8.570;2022-12-18T06:41:28;-8.40;99.90
23237;DHT22;11787;52.018;8.570;2022-12-18T06:43:54;-8.40;99.90
23237;DHT22;11787;52.018;8.570;2022-12-18T06:46:20;-8.30;99.90
23237;DHT22;11787;52.018;8.570;2022-12-18T06:48:49;-8.30;99.90
23237;DHT22;11787;52.018;8.570;2022-12-18T06:54:37;-8.20;99.90
23237;DHT22;11787;52.018;8.570;2022-12-18T06:57:03;-8.10;99.90
23237;DHT22;11787;52.018;8.570;2022-12-18T06:59:28;-8.10;99.90
23237;DHT22;11787;52.018;8.570;2022-12-18T07:01:54;-8.10;99.90
23237;DHT22;11787;52.018;8.570;2022-12-18T07:04:19;-8.10;99.90
23237;DHT22;11787;52.018;8.570;2022-12-18T07:06:45;-8.10;99.90
23237;DHT22;11787;52.018;8.570;2022-12-18T07:09:11;-8.20;99.90
23237;DHT22;11787;52.018;8.570;2022-12-18T07:11:36;-8.20;99.90
23237;DHT22;11787;52.018;8.570;2022-12-18T07:14:02;-8.20;99.90
23237;DHT22;11787;52.018;8.570;2022-12-18T07:16:27;-8.30;99.90
23237;DHT22;11787;52.018;8.570;2022-12-18T07:18:56;-8.40;99.90
23237;DHT22;11787;52.018;8.570;2022-12-18T07:21:24;-8.40;99.90
23237;DHT22;11787;52.018;8.570;2022-12-18T07:23:50;-8.50;99.90
23237;DHT22;11787;52.018;8.570;2022-12-18T07:26:18;-8.50;99.90
23237;DHT22;11787;52.018;8.570;2022-12-18T07:28:45;-8.50;99.90
23237;DHT22;11787;52.018;8.570;2022-12-18T07:31:16;-8.50;99.90
23237;DHT22;11787;52.018;8.570;2022-12-18T07:33:42;-8.50;99.90
23237;DHT22;11787;52.018;8.570;2022-12-18T07:36:09;-8.40;99.90
23237;DHT22;11787;52.018;8.570;2022-12-18T07:38:35;-8.40;99.90
23237;DHT22;11787;52.018;8.570;2022-12-18T07:41:06;-8.30;99.90
23237;DHT22;11787;52.018;8.570;2022-12-18T07:43:32;-8.30;99.90
23237;DHT22;11787;52.018;8.570;2022-12-18T07:45:57;-8.30;99.90
23237;DHT22;11787;52.018;8.570;2022-12-18T07:48:23;-8.20;99.90
23237;DHT22;11787;52.018;8.570;2022-12-18T07:50:49;-8.20;99.90
23237;DHT22;11787;52.018;8.570;2022-12-18T07:53:15;-8.10;99.90
23237;DHT22;11787;52.018;8.570;2022-12-18T07:55:41;-8.10;99.90
23237;DHT22;11787;52.018;8.570;2022-12-18T07:58:07;-8.00;99.90
23237;DHT22;11787;52.018;8.570;2022-12-18T08:00:33;-8.10;99.90
23237;DHT22;11787;52.018;8.570;2022-12-18T08:02:59;-8.10;99.90
23237;DHT22;11787;52.018;8.570;2022-12-18T08:05:25;-8.00;99.90
23237;DHT22;11787;52.018;8.570;2022-12-18T08:07:50;-8.10;99.90
23237;DHT22;11787;52.018;8.570;2022-12-18T08:10:16;-8.10;99.90
23237;DHT22;11787;52.018;8.570;2022-12-18T08:12:42;-8.10;99.90
23237;DHT22;11787;52.018;8.570;2022-12-18T08:15:08;-8.10;99.90
23237;DHT22;11787;52.018;8.570;2022-12-18T08:17:34;-8.10;99.90
23237;DHT22;11787;52.018;8.570;2022-12-18T08:19:59;-8.00;99.90
23237;DHT22;11787;52.018;8.570;2022-12-18T08:22:25;-8.00;99.90
23237;DHT22;11787;52.018;8.570;2022-12-18T08:24:51;-8.00;99.90
23237;DHT22;11787;52.018;8.570;2022-12-18T08:27:16;-7.90;99.90
23237;DHT22;11787;52.018;8.570;2022-12-18T08:29:42;-7.90;99.90
23237;DHT22;11787;52.018;8.570;2022-12-18T08:35:29;-7.80;99.90
23237;DHT22;11787;52.018;8.570;2022-12-18T08:37:55;-7.70;99.90
23237;DHT22;11787;52.018;8.570;2022-12-18T08:40:20;-7.60;99.90
23237;DHT22;11787;52.018;8.570;2022-12-18T08:42:46;-7.60;99.90
23237;DHT22;11787;52.018;8.570;2022-12-18T08:45:33;-7.50;99.90
23237;DHT22;11787;52.018;8.570;2022-12-18T08:47:59;-7.40;99.90
23237;DHT22;11787;52.018;8.570;2022-12-18T08:50:24;-7.40;99.90
23237;DHT22;11787;52.018;8.570;2022-12-18T08:56:13;-7.20;99.90
23237;DHT22;11787;52.018;8.570;2022-12-18T08:58:39;-7.00;99.90
23237;DHT22;11787;52.018;8.570;2022-12-18T09:01:08;-6.90;99.90
23237;DHT22;11787;52.018;8.570;2022-12-18T09:03:37;-6.80;99.90
23237;DHT22;11787;52.018;8.570;2022-12-18T09:06:04;-6.70;99.90
23237;DHT22;11787;52.018;8.570;2022-12-18T09:08:30;-6.60;99.90
23237;DHT22;11787;52.018;8.570;2022-12-18T09:10:55;-6.60;99.90
23237;DHT22;11787;52.018;8.570;2022-12-18T09:13:21;-6.60;99.90
23237;DHT22;11787;52.018;8.570;2022-12-18T09:15:52;-6.50;99.90
23237;DHT22;11787;52.018;8.570;2022-12-18T09:21:40;-6.30;99.90
23237;DHT22;11787;52.018;8.570;2022-12-18T09:24:06;-6.30;99.90
23237;DHT22;11787;52.018;8.570;2022-12-18T09:26:31;-6.20;99.90
23237;DHT22;11787;52.018;8.570;2022-12-18T09:28:57;-6.10;99.90
23237;DHT22;11787;52.018;8.570;2022-12-18T09:31:23;-6.00;99.90
23237;DHT22;11787;52.018;8.570;2022-12-18T09:37:11;-5.90;99.90
23237;DHT22;11787;52.018;8.570;2022-12-18T09:39:38;-5.70;99.90
23237;DHT22;11787;52.018;8.570;2022-12-18T09:42:03;-5.70;99.90
23237;DHT22;11787;52.018;8.570;2022-12-18T09:44:33;-5.70;99.90
23237;DHT22;11787;52.018;8.570;2022-12-18T09:52:49;-5.40;99.90
23237;DHT22;11787;52.018;8.570;2022-12-18T09:58:00;-5.30;99.90
23237;DHT22;11787;52.018;8.570;2022-12-18T10:00:28;-5.30;99.90
23237;DHT22;11787;52.018;8.570;2022-12-18T10:20:12;-4.90;99.90
23237;DHT22;11787;52.018;8.570;2022-12-18T10:23:03;-4.80;99.90
23237;DHT22;11787;52.018;8.570;2022-12-18T10:28:38;-4.50;99.90
23237;DHT22;11787;52.018;8.570;2022-12-18T10:31:23;-4.30;99.90
23237;DHT22;11787;52.018;8.570;2022-12-18T10:33:48;-4.30;99.90
23237;DHT22;11787;52.018;8.570;2022-12-18T10:36:15;-4.10;99.90
23237;DHT22;11787;52.018;8.570;2022-12-18T10:38:40;-4.00;99.90
23237;DHT22;11787;52.018;8.570;2022-12-18T10:41:24;-3.90;99.90
23237;DHT22;11787;52.018;8.570;2022-12-18T10:44:17;-3.80;99.90
23237;DHT22;11787;52.018;8.570;2022-12-18T10:46:45;-3.70;99.90
23237;DHT22;11787;52.018;8.570;2022-12-18T10:49:24;-3.50;99.90
23237;DHT22;11787;52.018;8.570;2022-12-18T10:51:51;-3.40;99.90
23237;DHT22;11787;52.018;8.570;2022-12-18T10:54:21;-3.30;99.90
23237;DHT22;11787;52.018;8.570;2022-12-18T10:56:47;-3.20;99.90
23237;DHT22;11787;52.018;8.570;2022-12-18T11:02:37;-3.00;99.90
23237;DHT22;11787;52.018;8.570;2022-12-18T11:07:54;-3.00;99.90
23237;DHT22;11787;52.018;8.570;2022-12-18T11:29:10;-2.70;99.90
23237;DHT22;11787;52.018;8.570;2022-12-18T11:31:41;-2.70;99.90
23237;DHT22;11787;52.018;8.570;2022-12-18T11:34:29;-2.60;99.90
23237;DHT22;11787;52.018;8.570;2022-12-18T11:40:22;-2.40;99.90
23237;DHT22;11787;52.018;8.570;2022-12-18T11:43:00;-2.40;99.90
23237;DHT22;11787;52.018;8.570;2022-12-18T11:45:40;-2.30;99.90
23237;DHT22;11787;52.018;8.570;2022-12-18T11:50:51;-2.20;99.90
23237;DHT22;11787;52.018;8.570;2022-12-18T11:53:17;-2.20;99.90
23237;DHT22;11787;52.018;8.570;2022-12-18T12:04:56;-2.00;99.90
23237;DHT22;11787;52.018;8.570;2022-12-18T12:10:12;-1.90;99.90
23237;DHT22;11787;52.018;8.570;2022-12-18T12:21:40;-1.70;99.90
23237;DHT22;11787;52.018;8.570;2022-12-18T12:34:55;-1.60;99.90
23237;DHT22;11787;52.018;8.570;2022-12-18T12:37:48;-1.60;99.90
23237;DHT22;11787;52.018;8.570;2022-12-18T12:40:24;-1.60;99.90
23237;DHT22;11787;52.018;8.570;2022-12-18T12:42:58;-1.60;99.90
23237;DHT22;11787;52.018;8.570;2022-12-18T12:49:02;-1.30;99.90
23237;DHT22;11787;52.018;8.570;2022-12-18T12:51:33;-1.30;99.90
23237;DHT22;11787;52.018;8.570;2022-12-18T12:54:01;-1.30;99.90
23237;DHT22;11787;52.018;8.570;2022-12-18T12:56:42;-1.30;99.90
23237;DHT22;11787;52.018;8.570;2022-12-18T12:59:22;-1.30;99.90
23237;DHT22;11787;52.018;8.570;2022-12-18T13:02:42;-1.30;99.90
23237;DHT22;11787;52.018;8.570;2022-12-18T13:04:52;-1.30;99.90
23237;DHT22;11787;52.018;8.570;2022-12-18T13:07:38;-1.30;99.90
23237;DHT22;11787;52.018;8.570;2022-12-18T13:13:07;-1.20;99.90
23237;DHT22;11787;52.018;8.570;2022-12-18T13:18:22;-1.30;99.90
23237;DHT22;11787;52.018;8.570;2022-12-18T13:21:01;-1.30;99.90
23237;DHT22;11787;52.018;8.570;2022-12-18T13:23:33;-1.20;99.90
23237;DHT22;11787;52.018;8.570;2022-12-18T13:26:00;-1.20;99.90
23237;DHT22;11787;52.018;8.570;2022-12-18T13:31:15;-1.20;99.90
23237;DHT22;11787;52.018;8.570;2022-12-18T13:36:46;-1.20;99.90
23237;DHT22;11787;52.018;8.570;2022-12-18T13:41:45;-1.20;99.90
23237;DHT22;11787;52.018;8.570;2022-12-18T13:44:42;-1.10;99.90
23237;DHT22;11787;52.018;8.570;2022-12-18T13:47:32;-1.20;99.90
23237;DHT22;11787;52.018;8.570;2022-12-18T13:49:59;-1.20;99.90
23237;DHT22;11787;52.018;8.570;2022-12-18T13:52:32;-1.10;99.90
23237;DHT22;11787;52.018;8.570;2022-12-18T13:55:00;-1.10;99.90
23237;DHT22;11787;52.018;8.570;2022-12-18T13:59:58;-1.20;99.90
23237;DHT22;11787;52.018;8.570;2022-12-18T14:02:27;-1.10;99.90
23237;DHT22;11787;52.018;8.570;2022-12-18T14:04:53;-1.20;99.90
23237;DHT22;11787;52.018;8.570;2022-12-18T14:07:24;-1.20;99.90
23237;DHT22;11787;52.018;8.570;2022-12-18T14:13:26;-1.20;99.90
23237;DHT22;11787;52.018;8.570;2022-12-18T14:15:54;-1.20;99.90
23237;DHT22;11787;52.018;8.570;2022-12-18T14:21:02;-1.20;99.90
23237;DHT22;11787;52.018;8.570;2022-12-18T14:23:39;-1.20;99.90
23237;DHT22;11787;52.018;8.570;2022-12-18T14:29:29;-1.10;99.90
23237;DHT22;11787;52.018;8.570;2022-12-18T14:32:06;-1.10;99.90
23237;DHT22;11787;52.018;8.570;2022-12-18T14:34:32;-1.10;99.90
23237;DHT22;11787;52.018;8.570;2022-12-18T14:36:57;-1.20;99.90
23237;DHT22;11787;52.018;8.570;2022-12-18T14:39:23;-1.20;99.90
23237;DHT22;11787;52.018;8.570;2022-12-18T14:41:51;-1.20;99.90
23237;DHT22;11787;52.018;8.570;2022-12-18T14:44:17;-1.20;99.90
23237;DHT22;11787;52.018;8.570;2022-12-18T14:46:44;-1.20;99.90
23237;DHT22;11787;52.018;8.570;2022-12-18T14:49:24;-1.20;99.90
23237;DHT22;11787;52.018;8.570;2022-12-18T14:51:53;-1.20;99.90
23237;DHT22;11787;52.018;8.570;2022-12-18T14:54:20;-1.20;99.90
23237;DHT22;11787;52.018;8.570;2022-12-18T14:56:51;-1.10;99.90
23237;DHT22;11787;52.018;8.570;2022-12-18T14:59:24;-1.10;99.90
23237;DHT22;11787;52.018;8.570;2022-12-18T15:01:59;-1.10;99.90
23237;DHT22;11787;52.018;8.570;2022-12-18T15:13:05;-1.00;99.90
23237;DHT22;11787;52.018;8.570;2022-12-18T15:23:55;-0.80;99.90
23237;DHT22;11787;52.018;8.570;2022-12-18T15:26:21;-0.90;99.90
23237;DHT22;11787;52.018;8.570;2022-12-18T15:28:54;-0.90;99.90
23237;DHT22;11787;52.018;8.570;2022-12-18T15:31:32;-0.90;99.90
23237;DHT22;11787;52.018;8.570;2022-12-18T15:34:26;-0.90;99.90
23237;DHT22;11787;52.018;8.570;2022-12-18T15:36:52;-0.90;99.90
23237;DHT22;11787;52.018;8.570;2022-12-18T15:39:17;-1.00;99.90
23237;DHT22;11787;52.018;8.570;2022-12-18T15:41:43;-0.80;99.90
23237;DHT22;11787;52.018;8.570;2022-12-18T15:47:51;-0.80;99.90
23237;DHT22;11787;52.018;8.570;2022-12-18T15:50:16;-0.80;99.90
23237;DHT22;11787;52.018;8.570;2022-12-18T15:52:44;-0.80;99.90
23237;DHT22;11787;52.018;8.570;2022-12-18T15:55:16;-0.80;99.90
23237;DHT22;11787;52.018;8.570;2022-12-18T15:58:01;-0.80;99.90
23237;DHT22;11787;52.018;8.570;2022-12-18T16:00:27;-0.70;99.90
23237;DHT22;11787;52.018;8.570;2022-12-18T16:02:52;-0.70;99.90
23237;DHT22;11787;52.018;8.570;2022-12-18T16:05:19;-0.70;99.90
23237;DHT22;11787;52.018;8.570;2022-12-18T16:07:47;-0.60;99.90
23237;DHT22;11787;52.018;8.570;2022-12-18T16:13:34;-0.70;99.90
23237;DHT22;11787;52.018;8.570;2022-12-18T16:16:00;-0.70;99.90
23237;DHT22;11787;52.018;8.570;2022-12-18T16:18:25;-0.70;99.90
23237;DHT22;11787;52.018;8.570;2022-12-18T16:20:51;-0.70;99.90
23237;DHT22;11787;52.018;8.570;2022-12-18T16:23:16;-0.70;99.90
23237;DHT22;11787;52.018;8.570;2022-12-18T16:25:42;-0.70;99.90
23237;DHT22;11787;52.018;8.570;2022-12-18T16:28:08;-0.60;99.90
23237;DHT22;11787;52.018;8.570;2022-12-18T16:30:33;-0.60;99.90
23237;DHT22;11787;52.018;8.570;2022-12-18T16:32:59;-0.60;99.90
23237;DHT22;11787;52.018;8.570;2022-12-18T16:35:25;-0.50;99.90
23237;DHT22;11787;52.018;8.570;2022-12-18T16:37:51;-0.50;99.90
23237;DHT22;11787;52.018;8.570;2022-12-18T16:40:18;-0.50;99.90
23237;DHT22;11787;52.018;8.570;2022-12-18T16:42:45;-0.50;99.90
23237;DHT22;11787;52.018;8.570;2022-12-18T16:45:13;-0.40;99.90
23237;DHT22;11787;52.018;8.570;2022-12-18T16:47:40;-0.40;99.90
23237;DHT22;11787;52.018;8.570;2022-12-18T16:50:06;-0.50;99.90
23237;DHT22;11787;52.018;8.570;2022-12-18T16:52:32;-0.50;99.90
23237;DHT22;11787;52.018;8.570;2022-12-18T16:54:58;-0.50;99.90
23237;DHT22;11787;52.018;8.570;2022-12-18T16:57:24;-0.50;99.90
23237;DHT22;11787;52.018;8.570;2022-12-18T16:59:49;-0.40;99.90
23237;DHT22;11787;52.018;8.570;2022-12-18T17:05:37;-0.50;99.90
23237;DHT22;11787;52.018;8.570;2022-12-18T17:08:03;-0.50;99.90
23237;DHT22;11787;52.018;8.570;2022-12-18T17:10:28;-0.50;99.90
23237;DHT22;11787;52.018;8.570;2022-12-18T17:12:54;-0.40;99.90
23237;DHT22;11787;52.018;8.570;2022-12-18T17:15:19;-0.40;99.90
23237;DHT22;11787;52.018;8.570;2022-12-18T17:21:08;-0.40;99.90
23237;DHT22;11787;52.018;8.570;2022-12-18T17:23:34;-0.40;99.90
23237;DHT22;11787;52.018;8.570;2022-12-18T17:25:59;-0.50;99.90
23237;DHT22;11787;52.018;8.570;2022-12-18T17:28:26;-0.40;99.90
23237;DHT22;11787;52.018;8.570;2022-12-18T17:30:53;-0.40;99.90
23237;DHT22;11787;52.018;8.570;2022-12-18T17:33:19;-0.40;99.90
23237;DHT22;11787;52.018;8.570;2022-12-18T17:35:45;-0.30;99.90
23237;DHT22;11787;52.018;8.570;2022-12-18T17:38:11;-0.20;99.90
23237;DHT22;11787;52.018;8.570;2022-12-18T17:40:37;-0.20;99.90
23237;DHT22;11787;52.018;8.570;2022-12-18T17:43:02;-0.10;99.90
23237;DHT22;11787;52.018;8.570;2022-12-18T17:45:28;-0.10;99.90
23237;DHT22;11787;52.018;8.570;2022-12-18T17:47:54;-0.10;99.90
23237;DHT22;11787;52.018;8.570;2022-12-18T17:53:42;-0.10;99.90
23237;DHT22;11787;52.018;8.570;2022-12-18T17:56:11;-0.10;99.90
23237;DHT22;11787;52.018;8.570;2022-12-18T17:58:38;-0.20;99.90
23237;DHT22;11787;52.018;8.570;2022-12-18T18:01:04;-0.10;99.90
23237;DHT22;11787;52.018;8.570;2022-12-18T18:03:32;-0.10;99.90
23237;DHT22;11787;52.018;8.570;2022-12-18T18:05:59;-0.10;99.90
23237;DHT22;11787;52.018;8.570;2022-12-18T18:08:26;0.00;99.90
23237;DHT22;11787;52.018;8.570;2022-12-18T18:10:52;-0.10;99.90
23237;DHT22;11787;52.018;8.570;2022-12-18T18:19:26;-0.10;99.90
23237;DHT22;11787;52.018;8.570;2022-12-18T18:21:52;-0.10;99.90
23237;DHT22;11787;52.018;8.570;2022-12-18T18:24:20;0.00;99.90
23237;DHT22;11787;52.018;8.570;2022-12-18T18:26:47;0.00;99.90
23237;DHT22;11787;52.018;8.570;2022-12-18T18:29:18;-0.10;99.90
23237;DHT22;11787;52.018;8.570;2022-12-18T18:35:07;0.00;99.90
23237;DHT22;11787;52.018;8.570;2022-12-18T18:37:33;0.00;99.90
23237;DHT22;11787;52.018;8.570;2022-12-18T18:39:59;0.00;99.90
23237;DHT22;11787;52.018;8.570;2022-12-18T18:42:24;0.00;99.90
23237;DHT22;11787;52.018;8.570;2022-12-18T18:44:50;-0.10;99.90
23237;DHT22;11787;52.018;8.570;2022-12-18T18:47:15;-0.10;99.90
23237;DHT22;11787;52.018;8.570;2022-12-18T18:49:41;-0.10;99.90
23237;DHT22;11787;52.018;8.570;2022-12-18T18:52:06;-0.10;99.90
23237;DHT22;11787;52.018;8.570;2022-12-18T18:54:32;-0.10;99.90
23237;DHT22;11787;52.018;8.570;2022-12-18T18:56:58;-0.20;99.90
23237;DHT22;11787;52.018;8.570;2022-12-18T18:59:24;-0.10;99.90
23237;DHT22;11787;52.018;8.570;2022-12-18T19:01:50;-0.10;99.90
23237;DHT22;11787;52.018;8.570;2022-12-18T19:04:17;-0.10;99.90
23237;DHT22;11787;52.018;8.570;2022-12-18T19:06:43;-0.20;99.90
23237;DHT22;11787;52.018;8.570;2022-12-18T19:09:11;-0.20;99.90
23237;DHT22;11787;52.018;8.570;2022-12-18T19:11:38;-0.20;99.90
23237;DHT22;11787;52.018;8.570;2022-12-18T19:14:22;-0.20;99.90
23237;DHT22;11787;52.018;8.570;2022-12-18T19:16:48;-0.20;99.90
23237;DHT22;11787;52.018;8.570;2022-12-18T19:19:14;-0.20;99.90
23237;DHT22;11787;52.018;8.570;2022-12-18T19:21:42;-0.20;99.90
23237;DHT22;11787;52.018;8.570;2022-12-18T19:24:08;-0.20;99.90
23237;DHT22;11787;52.018;8.570;2022-12-18T19:26:34;-0.20;99.90
23237;DHT22;11787;52.018;8.570;2022-12-18T19:29:04;-0.30;99.90
23237;DHT22;11787;52.018;8.570;2022-12-18T19:31:30;-0.20;99.90
23237;DHT22;11787;52.018;8.570;2022-12-18T19:37:18;-0.30;99.90
23237;DHT22;11787;52.018;8.570;2022-12-18T19:39:44;-0.30;99.90
23237;DHT22;11787;52.018;8.570;2022-12-18T19:42:09;-0.30;99.90
23237;DHT22;11787;52.018;8.570;2022-12-18T19:44:35;-0.30;99.90